sensor_id;sensor_type;location;lat;lon;timestamp;temperature;humidity
9095;DHT22;4583;49.796;9.902;2023-08-31T00:07:55;16.70;99.90
9095;DHT22;4583;49.796;9.902;2023-08-31T00:17:57;16.60;99.90
9095;DHT22;4583;49.796;9.902;2023-08-31T00:28:00;16.60;99.90
9095;DHT22;4583;49.796;9.902;2023-08-31T00:38:06;16.40;99.90
9095;DHT22;4583;49.796;9.902;2023-08-31T00:48:08;16.30;99.90
9095;DHT22;4583;49.796;9.902;2023-08-31T00:58:10;16.20;99.90
9095;DHT22;4583;49.796;9.902;2023-08-31T01:18:17;16.20;99.90
9095;DHT22;4583;49.796;9.902;2023-08-31T01:28:19;16.20;99.90
9095;DHT22;4583;49.796;9.902;2023-08-31T01:38:25;16.20;99.90
9095;DHT22;4583;49.796;9.902;2023-08-31T01:48:28;16.20;99.90
9095;DHT22;4583;49.796;9.902;2023-08-31T01:58:31;16.20;99.90
9095;DHT22;4583;49.796;9.902;2023-08-31T02:08:32;16.10;99.90
9095;DHT22;4583;49.796;9.902;2023-08-31T02:18:34;16.00;99.90
9095;DHT22;4583;49.796;9.902;2023-08-31T02:28:36;15.90;99.90
9095;DHT22;4583;49.796;9.902;2023-08-31T02:38:40;15.80;99.90
9095;DHT22;4583;49.796;9.902;2023-08-31T02:48:41;15.70;99.90
9095;DHT22;4583;49.796;9.902;2023-08-31T02:58:43;15.70;99.90
9095;DHT22;4583;49.796;9.902;2023-08-31T03:08:45;15.60;99.90
9095;DHT22;4583;49.796;9.902;2023-08-31T03:18:47;15.60;99.90
9095;DHT22;4583;49.796;9.902;2023-08-31T03:28:48;15.50;99.90
9095;DHT22;4583;49.796;9.902;2023-08-31T03:38:50;15.50;99.90
9095;DHT22;4583;49.796;9.902;2023-08-31T03:48:52;15.60;99.90
9095;DHT22;4583;49.796;9.902;2023-08-31T03:58:54;15.70;99.90
9095;DHT22;4583;49.796;9.902;2023-08-31T04:08:56;15.60;99.90
9095;DHT22;4583;49.796;9.902;2023-08-31T04:18:57;15.60;99.90
9095;DHT22;4583;49.796;9.902;2023-08-31T04:28:59;15.50;99.90
9095;DHT22;4583;49.796;9.902;2023-08-31T04:39:01;15.50;99.90
9095;DHT22;4583;49.796;9.902;2023-08-31T04:49:02;15.40;99.90
9095;DHT22;4583;49.796;9.902;2023-08-31T04:59:05;15.50;99.90
9095;DHT22;4583;49.796;9.902;2023-08-31T05:09:07;15.60;99.90
9095;DHT22;4583;49.796;9.902;2023-08-31T05:19:09;15.60;99.90
9095;DHT22;4583;49.796;9.902;2023-08-31T05:29:11;15.60;99.90
9095;DHT22;4583;49.796;9.902;2023-08-31T05:39:13;15.80;99.90
9095;DHT22;4583;49.796;9.902;2023-08-31T05:49:15;15.80;99.90
9095;DHT22;4583;49.796;9.902;2023-08-31T05:59:16;15.80;99.90
9095;DHT22;4583;49.796;9.902;2023-08-31T06:09:18;15.50;99.90
9095;DHT22;4583;49.796;9.902;2023-08-31T06:19:20;15.70;99.90
9095;DHT22;4583;49.796;9.902;2023-08-31T06:29:22;16.00;99.90
9095;DHT22;4583;49.796;9.902;2023-08-31T06:39:24;16.10;99.90
9095;DHT22;4583;49.796;9.902;2023-08-31T06:49:26;16.30;99.90
9095;DHT22;4583;49.796;9.902;2023-08-31T06:59:29;16.50;99.90
9095;DHT22;4583;49.796;9.902;2023-08-31T07:09:30;16.60;99.80
9095;DHT22;4583;49.796;9.902;2023-08-31T07:19:36;16.70;99.50
9095;DHT22;4583;49.796;9.902;2023-08-31T07:29:37;16.90;98.30
9095;DHT22;4583;49.796;9.902;2023-08-31T07:39:39;16.90;98.40
9095;DHT22;4583;49.796;9.902;2023-08-31T07:49:41;17.20;97.80
9095;DHT22;4583;49.796;9.902;2023-08-31T07:59:43;17.80;95.70
9095;DHT22;4583;49.796;9.902;2023-08-31T08:09:45;18.50;95.20
9095;DHT22;4583;49.796;9.902;2023-08-31T08:49:56;18.80;88.40
9095;DHT22;4583;49.796;9.902;2023-08-31T09:22:42;18.40;86.10
9095;DHT22;4583;49.796;9.902;2023-08-31T09:32:51;18.80;84.20
9095;DHT22;4583;49.796;9.902;2023-08-31T10:03:03;18.60;81.10
9095;DHT22;4583;49.796;9.902;2023-08-31T10:13:06;18.60;79.80
9095;DHT22;4583;49.796;9.902;2023-08-31T10:23:08;18.70;80.40
9095;DHT22;4583;49.796;9.902;2023-08-31T10:33:20;18.80;77.20
9095;DHT22;4583;49.796;9.902;2023-08-31T10:43:24;19.10;73.10
9095;DHT22;4583;49.796;9.902;2023-08-31T10:53:38;19.20;72.80
9095;DHT22;4583;49.796;9.902;2023-08-31T11:03:57;19.30;73.50
9095;DHT22;4583;49.796;9.902;2023-08-31T11:13:59;19.10;72.30
9095;DHT22;4583;49.796;9.902;2023-08-31T11:24:01;18.80;73.00
9095;DHT22;4583;49.796;9.902;2023-08-31T11:34:04;18.90;73.90
9095;DHT22;4583;49.796;9.902;2023-08-31T11:44:07;19.20;74.40
9095;DHT22;4583;49.796;9.902;2023-08-31T11:54:11;19.40;74.70
9095;DHT22;4583;49.796;9.902;2023-08-31T12:04:14;19.60;74.50
9095;DHT22;4583;49.796;9.902;2023-08-31T12:14:21;20.00;72.80
9095;DHT22;4583;49.796;9.902;2023-08-31T12:24:24;20.20;68.30
9095;DHT22;4583;49.796;9.902;2023-08-31T12:34:26;20.10;65.70
9095;DHT22;4583;49.796;9.902;2023-08-31T12:44:27;20.20;66.00
9095;DHT22;4583;49.796;9.902;2023-08-31T12:54:29;20.80;66.00
9095;DHT22;4583;49.796;9.902;2023-08-31T13:04:31;20.70;65.00
9095;DHT22;4583;49.796;9.902;2023-08-31T13:14:33;20.80;65.10
9095;DHT22;4583;49.796;9.902;2023-08-31T13:24:36;20.60;64.60
9095;DHT22;4583;49.796;9.902;2023-08-31T13:34:37;20.50;63.80
9095;DHT22;4583;49.796;9.902;2023-08-31T13:44:39;20.80;62.60
9095;DHT22;4583;49.796;9.902;2023-08-31T13:54:41;21.20;60.10
9095;DHT22;4583;49.796;9.902;2023-08-31T14:04:43;22.40;56.90
9095;DHT22;4583;49.796;9.902;2023-08-31T14:14:44;22.40;57.40
9095;DHT22;4583;49.796;9.902;2023-08-31T14:24:47;25.70;53.30
9095;DHT22;4583;49.796;9.902;2023-08-31T14:34:49;26.90;50.50
9095;DHT22;4583;49.796;9.902;2023-08-31T14:44:52;28.50;46.70
9095;DHT22;4583;49.796;9.902;2023-08-31T14:54:54;25.40;49.70
9095;DHT22;4583;49.796;9.902;2023-08-31T15:04:57;25.30;49.10
9095;DHT22;4583;49.796;9.902;2023-08-31T15:14:59;25.30;50.30
9095;DHT22;4583;49.796;9.902;2023-08-31T15:25:01;24.10;50.40
9095;DHT22;4583;49.796;9.902;2023-08-31T15:35:04;23.20;51.40
9095;DHT22;4583;49.796;9.902;2023-08-31T15:45:06;22.70;52.10
9095;DHT22;4583;49.796;9.902;2023-08-31T15:55:08;22.50;52.90
9095;DHT22;4583;49.796;9.902;2023-08-31T16:05:10;22.40;53.40
9095;DHT22;4583;49.796;9.902;2023-08-31T16:15:12;22.20;53.90
9095;DHT22;4583;49.796;9.902;2023-08-31T16:25:14;22.00;54.60
9095;DHT22;4583;49.796;9.902;2023-08-31T16:35:19;21.70;55.30
9095;DHT22;4583;49.796;9.902;2023-08-31T16:45:21;22.90;54.10
9095;DHT22;4583;49.796;9.902;2023-08-31T16:55:23;21.70;55.60
9095;DHT22;4583;49.796;9.902;2023-08-31T17:05:28;21.20;56.60
9095;DHT22;4583;49.796;9.902;2023-08-31T17:15:30;20.80;57.80
9095;DHT22;4583;49.796;9.902;2023-08-31T17:25:33;20.50;58.60
9095;DHT22;4583;49.796;9.902;2023-08-31T17:35:34;20.30;59.60
9095;DHT22;4583;49.796;9.902;2023-08-31T17:45:36;20.30;60.60
9095;DHT22;4583;49.796;9.902;2023-08-31T17:55:38;20.00;61.30
9095;DHT22;4583;49.796;9.902;2023-08-31T18:05:50;20.00;61.90
9095;DHT22;4583;49.796;9.902;2023-08-31T18:15:57;19.80;62.60
9095;DHT22;4583;49.796;9.902;2023-08-31T18:25:59;19.70;63.40
9095;DHT22;4583;49.796;9.902;2023-08-31T18:36:01;19.60;64.10
9095;DHT22;4583;49.796;9.902;2023-08-31T18:46:02;19.40;64.70
9095;DHT22;4583;49.796;9.902;2023-08-31T18:56:04;19.30;65.30
9095;DHT22;4583;49.796;9.902;2023-08-31T19:06:06;19.20;66.10
9095;DHT22;4583;49.796;9.902;2023-08-31T19:16:08;19.20;66.80
9095;DHT22;4583;49.796;9.902;2023-08-31T19:26:11;19.20;67.50
9095;DHT22;4583;49.796;9.902;2023-08-31T19:36:15;19.20;68.10
9095;DHT22;4583;49.796;9.902;2023-08-31T19:46:17;19.10;68.90
9095;DHT22;4583;49.796;9.902;2023-08-31T19:56:19;19.10;69.50
9095;DHT22;4583;49.796;9.902;2023-08-31T20:06:21;19.10;70.50
9095;DHT22;4583;49.796;9.902;2023-08-31T20:16:23;19.10;71.50
9095;DHT22;4583;49.796;9.902;2023-08-31T20:26:26;19.00;72.10
9095;DHT22;4583;49.796;9.902;2023-08-31T20:36:28;19.00;73.30
9095;DHT22;4583;49.796;9.902;2023-08-31T20:46:30;19.00;74.00
9095;DHT22;4583;49.796;9.902;2023-08-31T20:56:34;19.00;74.60
9095;DHT22;4583;49.796;9.902;2023-08-31T21:06:36;18.90;75.40
9095;DHT22;4583;49.796;9.902;2023-08-31T21:16:38;18.80;76.10
9095;DHT22;4583;49.796;9.902;2023-08-31T21:26:40;18.80;76.90
9095;DHT22;4583;49.796;9.902;2023-08-31T21:36:42;18.70;77.90
9095;DHT22;4583;49.796;9.902;2023-08-31T21:46:44;18.60;78.90
9095;DHT22;4583;49.796;9.902;2023-08-31T21:56:46;18.50;79.70
9095;DHT22;4583;49.796;9.902;2023-08-31T22:06:47;18.40;80.90
9095;DHT22;4583;49.796;9.902;2023-08-31T22:16:50;18.30;82.50
9095;DHT22;4583;49.796;9.902;2023-08-31T22:26:52;18.30;84.10
9095;DHT22;4583;49.796;9.902;2023-08-31T22:36:54;18.20;86.10
9095;DHT22;4583;49.796;9.902;2023-08-31T22:46:55;18.10;87.70
9095;DHT22;4583;49.796;9.902;2023-08-31T22:56:57;18.20;89.50
9095;DHT22;4583;49.796;9.902;2023-08-31T23:06:59;18.00;90.50
9095;DHT22;4583;49.796;9.902;2023-08-31T23:17:01;17.90;91.40
9095;DHT22;4583;49.796;9.902;2023-08-31T23:27:03;17.80;92.50
9095;DHT22;4583;49.796;9.902;2023-08-31T23:37:05;17.60;93.60
9095;DHT22;4583;49.796;9.902;2023-08-31T23:47:07;17.60;94.80
9095;DHT22;4583;49.796;9.902;2023-08-31T23:57:09;17.50;95.90
